Time;durP1;ratioP1;P1;durP2;ratioP2;P2;SDS_P1;SDS_P2;PMS_P1;PMS_P2;Temp;Humidity;BMP_temperature;BMP_pressure;BME280_temperature;BME280_humidity;BME280_pressure;Samples;Min_cycle;Max_cycle;Signal;HPM_P1;HPM_P2
2022/11/23 05:13:14;;;;;;;;;;;;;;;;;;;;;
2022/11/23 05:16:22;;;;;;;16.88;7.75;;;;;;;2.89;74.31;98507.81;6223376;23;20020;-96
2022/11/23 05:19:19;;;;;;;18.75;6.35;;;;;;;2.81;74.74;98511.94;6217790;23;20028;-95
2022/11/23 05:21:55;;;;;;;14.93;6.78;;;;;;;2.84;74.47;98510.56;6140663;23;20023;-94
2022/11/23 05:24:25;;;;;;;14.75;6.88;;;;;;;2.88;74.38;98522.44;6139221;23;20031;-96
2022/11/23 05:27:12;;;;;;;29.67;15.52;;;;;;;3.11;74.69;98555.16;6216379;23;20099;-95
2022/11/23 05:32:29;;;;;;;33.55;12.23;;;;;;;2.76;74.45;98508.47;6295817;22;20004;-96
2022/11/23 05:35:15;;;;;;;16.90;8.88;;;;;;;2.89;74.87;98537.53;6218589;22;19996;-94
2022/11/23 05:37:53;;;;;;;15.82;7.32;;;;;;;3.40;75.35;98639.72;6208537;23;20021;-96
2022/11/23 05:40:48;;;;;;;17.23;6.82;;;;;;;3.14;75.65;98577.00;6191259;23;20000;-95
2022/11/23 05:43:24;;;;;;;15.40;6.82;;;;;;;2.85;75.47;98525.69;6134941;23;20024;-95
2022/11/23 05:48:44;;;;;;;15.32;6.35;;;;;;;3.06;74.85;98548.72;6229914;23;20017;-96
2022/11/23 05:54:25;;;;;;;30.20;9.32;;;;;;;3.62;74.00;98608.75;6109376;23;20072;-94
2022/11/23 06:00:20;;;;;;;33.65;9.02;;;;;;;3.82;73.70;98632.88;6120646;23;20022;-94
2022/11/23 06:03:01;;;;;;;25.20;7.22;;;;;;;2.92;74.14;98531.56;6079046;23;20029;-94
2022/11/23 06:05:34;;;;;;;11.30;6.43;;;;;;;3.09;73.86;98541.16;6094205;23;20030;-96
2022/11/23 06:11:06;;;;;;;17.95;6.90;;;;;;;3.42;73.99;98593.53;6214243;22;20035;-91
2022/11/23 06:13:32;;;;;;;16.27;7.35;;;;;;;3.41;74.20;98613.50;6224437;23;20519;-93
2022/11/23 06:16:02;;;;;;;16.25;7.45;;;;;;;3.46;74.69;98630.50;6210437;23;20012;-91
2022/11/23 06:18:43;;;;;;;15.95;6.88;;;;;;;3.23;74.55;98583.41;6264870;23;20020;-92
2022/11/23 06:21:25;;;;;;;19.42;7.90;;;;;;;3.62;74.33;98627.69;6140285;23;20060;-93
2022/11/23 06:23:52;;;;;;;16.13;8.15;;;;;;;3.53;74.08;98587.75;6153411;23;20025;-91
2022/11/23 06:26:19;;;;;;;21.60;8.30;;;;;;;3.75;73.18;98624.31;6166573;23;20080;-92
2022/11/23 06:28:47;;;;;;;20.98;7.70;;;;;;;3.70;73.67;98625.16;6154100;23;20028;-91
2022/11/23 06:31:16;;;;;;;16.65;7.82;;;;;;;3.41;73.61;98562.19;6161112;23;20033;-93
2022/11/23 06:33:42;;;;;;;23.95;8.10;;;;;;;3.54;73.64;98612.88;6125823;23;20025;-94
2022/11/23 06:36:10;;;;;;;18.67;8.30;;;;;;;3.24;74.15;98565.31;6142356;23;20104;-92
2022/11/23 06:38:45;;;;;;;28.10;8.80;;;;;;;3.35;73.53;98569.56;6141167;23;20067;-93
2022/11/23 06:41:18;;;;;;;13.52;8.02;;;;;;;3.63;73.89;98618.47;6166279;23;20076;-93
2022/11/23 06:43:47;;;;;;;22.05;8.00;;;;;;;3.14;74.33;98539.19;6165951;23;20036;-93
2022/11/23 06:46:22;;;;;;;14.45;8.57;;;;;;;3.36;73.94;98586.56;6111242;23;20013;-94
2022/11/23 06:49:18;;;;;;;19.77;10.15;;;;;;;3.60;74.59;98638.75;6112116;23;20027;-93
2022/11/23 06:51:49;;;;;;;23.42;11.13;;;;;;;3.49;74.67;98619.13;6110244;23;20020;-93
2022/11/23 06:55:22;;;;;;;17.85;8.75;;;;;;;3.63;75.10;98646.28;6198326;23;20027;-91
2022/11/23 06:57:49;;;;;;;14.02;7.18;;;;;;;3.63;74.71;98638.19;6233494;22;20026;-94
2022/11/23 07:00:19;;;;;;;24.67;8.52;;;;;;;3.21;74.74;98574.81;6208938;22;20051;-92
2022/11/23 07:02:55;;;;;;;19.20;8.95;;;;;;;3.52;74.73;98602.34;6210925;22;20030;-92
2022/11/23 07:05:23;;;;;;;27.50;9.45;;;;;;;3.51;74.55;98600.75;6231963;22;20327;-92
2022/11/23 07:07:50;;;;;;;19.88;9.95;;;;;;;3.46;73.93;98589.97;6229119;22;20015;-92
2022/11/23 07:10:47;;;;;;;21.40;9.50;;;;;;;3.76;74.19;98652.94;6203697;22;20025;-92
2022/11/23 07:13:29;;;;;;;21.73;10.20;;;;;;;3.48;74.59;98604.00;6215364;22;20042;-93
2022/11/23 07:15:57;;;;;;;21.40;10.70;;;;;;;3.61;74.60;98647.66;6227551;22;20095;-92
2022/11/23 07:18:24;;;;;;;22.38;11.90;;;;;;;3.78;74.10;98641.88;6230613;22;20034;-91
2022/11/23 07:20:58;;;;;;;22.15;12.30;;;;;;;3.79;73.48;98633.47;6203639;22;20079;-91
2022/11/23 07:23:25;;;;;;;35.67;12.82;;;;;;;4.12;72.42;98676.94;6239807;22;20079;-91
2022/11/23 07:25:54;;;;;;;29.02;13.80;;;;;;;3.50;72.39;98591.00;6202092;22;20011;-91
2022/11/23 07:28:45;;;;;;;30.08;15.00;;;;;;;3.52;73.35;98609.66;6259506;22;20404;-94
2022/11/23 07:31:15;;;;;;;33.90;14.02;;;;;;;3.94;72.90;98670.34;6205087;22;20469;-95
2022/11/23 07:33:45;;;;;;;22.00;12.15;;;;;;;3.73;72.91;98643.50;6206678;22;20407;-90
2022/11/23 07:36:15;;;;;;;19.95;9.95;;;;;;;3.55;73.04;98649.63;6227174;22;20019;-94
2022/11/23 07:38:44;;;;;;;17.67;9.55;;;;;;;3.57;73.45;98642.03;6202232;22;20016;-93
2022/11/23 07:41:14;;;;;;;21.42;9.10;;;;;;;3.30;73.16;98602.00;6180620;22;20022;-93
2022/11/23 07:44:35;;;;;;;21.38;8.55;;;;;;;3.63;73.29;98669.81;6114330;23;20022;-92
2022/11/23 07:47:09;;;;;;;13.95;7.63;;;;;;;3.58;73.88;98669.88;6108000;23;20018;-93
2022/11/23 07:50:06;;;;;;;27.02;8.52;;;;;;;3.59;73.78;98666.06;6082334;23;20022;-91
2022/11/23 07:52:34;;;;;;;20.33;8.43;;;;;;;3.18;74.29;98593.44;6132528;23;20476;-92
2022/11/23 07:55:51;;;;;;;20.58;7.70;;;;;;;3.85;73.50;98663.97;6135010;23;20017;-93
2022/11/23 07:58:42;;;;;;;14.75;7.80;;;;;;;3.81;73.03;98665.59;6107628;23;20029;-93
2022/11/23 08:01:19;;;;;;;15.55;8.18;;;;;;;3.63;73.48;98667.13;6104933;23;20288;-91
2022/11/23 08:03:57;;;;;;;18.70;9.13;;;;;;;3.64;73.88;98668.72;6129096;23;20029;-92
2022/11/23 08:06:23;;;;;;;26.02;9.50;;;;;;;3.36;73.81;98624.38;6107284;23;20069;-92
2022/11/23 08:08:49;;;;;;;17.63;8.70;;;;;;;3.58;74.19;98673.38;6132523;23;20025;-93
2022/11/23 08:11:19;;;;;;;15.68;8.80;;;;;;;3.44;73.88;98634.56;6105626;23;20046;-93
2022/11/23 08:13:46;;;;;;;18.17;8.85;;;;;;;3.40;74.16;98636.22;6086966;23;20018;-92
2022/11/23 08:16:18;;;;;;;12.63;8.10;;;;;;;3.28;73.71;98601.50;6056473;23;20023;-93
2022/11/23 08:18:49;;;;;;;19.60;8.85;;;;;;;3.58;73.85;98656.38;6108303;23;20041;-92
2022/11/23 08:21:16;;;;;;;24.25;9.48;;;;;;;3.32;73.72;98605.22;6219752;23;20075;-92
2022/11/23 08:23:52;;;;;;;18.05;8.77;;;;;;;3.42;73.67;98615.94;6225023;23;20020;-93
2022/11/23 08:26:18;;;;;;;16.00;9.45;;;;;;;3.51;73.73;98635.88;6175778;23;20022;-91
2022/11/23 08:28:46;;;;;;;18.73;8.98;;;;;;;3.74;73.80;98664.06;6190076;23;20035;-90
2022/11/23 08:31:13;;;;;;;14.15;8.38;;;;;;;3.49;73.57;98621.81;6197446;22;20019;-91
2022/11/23 08:34:12;;;;;;;;;;;;;;;3.73;73.65;98669.72;6208300;23;20074;-93
2022/11/23 08:37:04;;;;;;;17.15;8.57;;;;;;;3.74;74.35;98679.44;6201716;23;19962;-93
2022/11/23 08:39:30;;;;;;;18.85;8.88;;;;;;;3.22;74.31;98595.31;6181104;23;20027;-92
2022/11/23 08:41:56;;;;;;;20.98;9.98;;;;;;;3.39;73.80;98605.72;6201855;23;20063;-92
2022/11/23 08:44:22;;;;;;;17.92;10.00;;;;;;;3.47;73.60;98639.41;6178340;23;20080;-92
2022/11/23 08:46:50;;;;;;;29.00;11.52;;;;;;;3.10;74.43;98581.34;6202072;23;20095;-94
2022/11/23 08:49:18;;;;;;;17.48;9.20;;;;;;;2.91;74.41;98556.91;6159677;23;20016;-90
2022/11/23 08:51:47;;;;;;;16.50;8.55;;;;;;;2.94;74.66;98572.56;6214441;22;20044;-91
2022/11/23 08:54:13;;;;;;;23.95;9.30;;;;;;;3.70;74.24;98684.63;6192638;23;20020;-92
2022/11/23 08:56:40;;;;;;;22.15;7.82;;;;;;;3.26;73.95;98609.84;6222949;23;20012;-93
2022/11/23 08:59:07;;;;;;;12.13;6.73;;;;;;;2.96;74.57;98593.88;6177845;23;20016;-91
2022/11/23 09:01:34;;;;;;;24.42;7.72;;;;;;;3.20;73.99;98613.69;6176139;23;20023;-92
2022/11/23 09:04:03;;;;;;;17.58;7.63;;;;;;;3.54;73.49;98631.78;6179524;23;20034;-94
2022/11/23 09:06:33;;;;;;;28.10;6.88;;;;;;;3.10;72.98;98558.94;6176665;23;20024;-93
2022/11/23 09:09:04;;;;;;;13.38;6.38;;;;;;;3.27;72.94;98583.66;6202317;23;20016;-90
2022/11/23 09:11:30;;;;;;;10.80;6.07;;;;;;;3.35;72.46;98584.97;6229772;23;20020;-91
2022/11/23 09:14:01;;;;;;;16.37;5.90;;;;;;;3.73;72.65;98654.31;6175857;23;20023;-90
2022/11/23 09:16:40;;;;;;;9.95;5.82;;;;;;;3.83;73.43;98680.44;6155735;23;20020;-92
2022/11/23 09:19:12;;;;;;;12.70;6.53;;;;;;;3.26;73.40;98590.94;6156123;23;20070;-93
2022/11/23 09:21:41;;;;;;;12.25;7.10;;;;;;;3.28;72.62;98583.38;6199103;23;20462;-90
2022/11/23 09:24:11;;;;;;;18.77;6.70;;;;;;;3.84;72.57;98651.50;6174074;23;20016;-91
2022/11/23 09:26:40;;;;;;;14.43;6.18;;;;;;;3.99;72.76;98689.22;6173911;23;20016;-92
2022/11/23 09:29:09;;;;;;;10.07;6.40;;;;;;;3.32;72.76;98572.81;6200901;23;20250;-92
2022/11/23 09:31:38;;;;;;;11.50;6.13;;;;;;;4.02;72.99;98683.25;6208643;23;20024;-92
2022/11/23 09:34:05;;;;;;;7.63;5.40;;;;;;;3.37;72.91;98577.34;6178944;23;20012;-91
2022/11/23 09:36:31;;;;;;;15.50;5.95;;;;;;;3.74;72.54;98644.31;6229251;23;20016;-91
2022/11/23 09:39:12;;;;;;;9.85;5.82;;;;;;;3.44;72.04;98591.34;6208597;23;20016;-92
2022/11/23 09:42:12;;;;;;;11.63;5.63;;;;;;;4.31;72.26;98683.25;6207366;23;20026;-91
2022/11/23 09:45:02;;;;;;;8.45;5.40;;;;;;;4.35;71.35;98686.16;6177739;23;20016;-91
2022/11/23 09:48:13;;;;;;;13.55;5.68;;;;;;;4.20;71.63;98696.03;6175374;23;20020;-93
2022/11/23 09:50:52;;;;;;;11.02;6.40;;;;;;;4.25;71.79;98692.50;6229993;23;20073;-93
2022/11/23 09:56:56;;;;;;;15.80;6.20;;;;;;;3.90;72.68;98672.00;6252170;23;20617;-93
2022/11/23 09:59:28;;;;;;;11.55;5.82;;;;;;;4.05;72.63;98688.09;6184613;23;20019;-92
2022/11/23 10:02:27;;;;;;;15.70;6.00;;;;;;;3.90;71.80;98656.59;6116692;23;20026;-92
2022/11/23 10:04:56;;;;;;;9.68;6.13;;;;;;;3.16;72.61;98552.44;6085149;23;20021;-93
2022/11/23 10:07:53;;;;;;;11.30;6.18;;;;;;;4.15;73.08;98687.19;6104478;23;20018;-91
2022/11/23 10:10:26;;;;;;;10.88;5.90;;;;;;;4.04;71.94;98677.53;6105658;23;20018;-90
2022/11/23 10:13:29;;;;;;;11.07;6.32;;;;;;;3.45;71.67;98580.25;6058431;23;20056;-91
2022/11/23 10:23:57;;;;;;;9.50;6.13;;;;;;;3.66;72.85;98626.81;6123974;23;20025;-93
2022/11/23 10:26:31;;;;;;;14.18;6.68;;;;;;;3.26;72.39;98563.13;6091801;23;20041;-94
2022/11/23 10:29:15;;;;;;;12.50;6.85;;;;;;;4.14;72.46;98680.97;6083745;23;20498;-91
2022/11/23 10:31:48;;;;;;;13.23;7.25;;;;;;;3.52;72.39;98598.84;6108892;23;20022;-91
2022/11/23 10:34:41;;;;;;;18.30;7.72;;;;;;;3.57;72.98;98644.72;6106559;23;20308;-92
2022/11/23 10:37:12;;;;;;;13.95;6.78;;;;;;;3.59;73.30;98622.84;6061523;23;20050;-90
2022/11/23 10:39:38;;;;;;;14.15;7.25;;;;;;;3.70;72.81;98622.44;6084048;23;20018;-90
2022/11/23 10:42:25;;;;;;;15.68;6.47;;;;;;;4.00;73.25;98663.78;6103463;23;20018;-89
2022/11/23 10:45:00;;;;;;;14.15;7.40;;;;;;;4.04;72.35;98685.66;6132510;23;20042;-90
2022/11/23 10:47:50;;;;;;;17.15;7.93;;;;;;;3.93;73.24;98687.66;6094163;23;20029;-89
2022/11/23 10:50:29;;;;;;;14.23;6.90;;;;;;;3.82;72.68;98676.13;6108993;23;20014;-90
2022/11/23 10:52:58;;;;;;;11.05;6.70;;;;;;;3.62;72.76;98646.59;6057995;23;20068;-92
2022/11/23 10:55:33;;;;;;;10.52;6.18;;;;;;;3.66;72.84;98663.84;6058387;22;20032;-91
2022/11/23 10:58:01;;;;;;;12.07;6.47;;;;;;;3.37;73.12;98647.59;6235038;22;20080;-90
2022/11/23 11:00:27;;;;;;;;;;;;;;;3.62;73.69;98704.16;6186849;22;20085;-90
2022/11/23 11:02:57;;;;;;;13.43;6.63;;;;;;;3.06;73.72;98610.81;6237744;22;19915;-90
2022/11/23 11:05:38;;;;;;;10.75;6.68;;;;;;;3.60;73.33;98679.28;6241687;22;20034;-89
2022/11/23 11:08:17;;;;;;;12.40;6.93;;;;;;;3.64;74.15;98704.69;6221214;22;20008;-90
2022/11/23 11:10:48;;;;;;;14.30;7.60;;;;;;;2.93;73.79;98576.34;6222834;22;20071;-89
2022/11/23 11:13:31;;;;;;;13.35;6.40;;;;;;;3.74;73.37;98701.91;6213001;22;20023;-92
2022/11/23 11:16:06;;;;;;;11.68;6.13;;;;;;;3.68;73.37;98705.72;6205678;22;20016;-92
2022/11/23 11:18:37;;;;;;;9.32;5.72;;;;;;;3.25;73.76;98667.69;6231251;22;20114;-93
2022/11/23 11:21:18;;;;;;;16.00;7.28;;;;;;;2.80;74.50;98617.47;6259036;22;20453;-90
2022/11/23 11:24:15;;;;;;;13.63;6.45;;;;;;;3.20;75.07;98683.91;6205034;22;20024;-91
2022/11/23 11:27:03;;;;;;;12.93;6.18;;;;;;;3.02;75.27;98671.88;6167008;23;20021;-91
2022/11/23 11:29:49;;;;;;;11.60;6.28;;;;;;;3.13;75.39;98688.00;6191684;23;20017;-91
2022/11/23 11:32:33;;;;;;;9.95;5.45;;;;;;;3.34;74.79;98719.19;6138119;23;20083;-91
2022/11/23 11:35:24;;;;;;;19.70;6.70;;;;;;;3.33;74.56;98728.41;6112370;23;20021;-94
2022/11/23 11:37:54;;;;;;;23.52;5.25;;;;;;;2.96;74.63;98688.38;6125114;23;20017;-90
2022/11/23 11:40:34;;;;;;;17.23;6.13;;;;;;;2.79;75.71;98688.72;6139250;23;20016;-92
2022/11/23 11:43:26;;;;;;;39.47;6.93;;;;;;;3.14;75.97;98730.13;6161944;23;20096;-91
2022/11/23 11:46:01;;;;;;;20.15;5.15;;;;;;;3.15;75.12;98731.75;6113022;23;20478;-94
2022/11/23 11:48:41;;;;;;;28.60;5.80;;;;;;;3.19;75.14;98746.31;6136689;23;20027;-93
2022/11/23 11:51:21;;;;;;;24.92;6.05;;;;;;;2.71;75.48;98683.91;6162893;23;20103;-92
2022/11/23 11:54:17;;;;;;;28.40;5.55;;;;;;;2.88;75.92;98722.16;6162952;23;20529;-91
2022/11/23 11:56:49;;;;;;;24.55;6.22;;;;;;;3.11;76.19;98750.38;6164536;23;20021;-90
2022/11/23 11:59:41;;;;;;;10.80;4.20;;;;;;;2.70;76.16;98696.59;6117905;23;20017;-92
2022/11/23 12:02:20;;;;;;;17.65;4.82;;;;;;;3.05;76.22;98757.72;6142054;23;20474;-91
2022/11/23 12:04:57;;;;;;;33.50;5.82;;;;;;;3.04;76.34;98763.38;6200095;22;20041;-91
2022/11/23 12:07:43;;;;;;;14.80;4.57;;;;;;;2.54;76.09;98695.84;6202852;22;20034;-91
2022/11/23 12:10:13;;;;;;;34.85;6.20;;;;;;;2.95;76.13;98770.47;6257037;22;20476;-92
2022/11/23 12:12:40;;;;;;;29.98;4.88;;;;;;;2.81;76.37;98762.97;6205194;22;20019;-92
2022/11/23 12:15:16;;;;;;;30.03;5.80;;;;;;;2.54;76.48;98701.22;6205613;22;20072;-90
2022/11/23 12:17:56;;;;;;;14.43;6.05;;;;;;;2.85;76.86;98749.72;6231803;22;20321;-89
2022/11/23 12:20:37;;;;;;;11.55;6.70;;;;;;;2.99;76.34;98752.63;6229344;22;20024;-91
2022/11/23 12:23:21;;;;;;;19.45;6.88;;;;;;;3.08;75.97;98783.38;6255218;22;20020;-91
2022/11/23 12:26:03;;;;;;;18.90;7.20;;;;;;;2.60;76.46;98710.13;6282122;22;20026;-90
2022/11/23 12:28:57;;;;;;;18.50;6.57;;;;;;;3.02;76.35;98785.28;6211421;22;20019;-91
2022/11/23 12:31:38;;;;;;;14.32;6.25;;;;;;;2.81;76.31;98762.13;6205436;22;20029;-91
2022/11/23 12:34:47;;;;;;;16.55;6.38;;;;;;;3.19;75.98;98794.94;6205992;22;20019;-91
2022/11/23 12:37:38;;;;;;;21.85;6.45;;;;;;;3.30;75.25;98796.47;6204653;22;20062;-92
2022/11/23 12:40:23;;;;;;;23.42;7.90;;;;;;;3.31;75.19;98803.50;6208942;22;20051;-92
2022/11/23 12:43:01;;;;;;;30.63;7.30;;;;;;;2.82;75.58;98737.56;6233284;22;20019;-90
2022/11/23 12:46:09;;;;;;;44.30;6.40;;;;;;;3.16;75.20;98800.88;6208897;22;20020;-91
2022/11/23 12:48:41;;;;;;;32.05;6.28;;;;;;;3.08;75.65;98809.53;6161273;23;20017;-91
2022/11/23 12:51:39;;;;;;;25.92;5.50;;;;;;;3.05;75.46;98811.72;6191517;23;20051;-91
2022/11/23 12:54:46;;;;;;;19.70;7.63;;;;;;;2.93;75.80;98808.50;6188759;22;20123;-91
2022/11/23 12:57:33;;;;;;;24.15;6.63;;;;;;;2.63;76.54;98770.81;6256477;22;20458;-89
2022/11/23 13:00:06;;;;;;;22.85;7.28;;;;;;;2.86;77.11;98820.69;6215683;22;20045;-91
2022/11/23 13:03:00;;;;;;;13.48;7.30;;;;;;;2.80;77.06;98826.09;6188937;22;20094;-93
2022/11/23 13:05:58;;;;;;;23.42;9.32;;;;;;;2.90;77.05;98819.84;6235329;22;20133;-93
2022/11/23 13:08:52;;;;;;;27.30;9.43;;;;;;;3.06;76.52;98828.72;6263640;22;20053;-90
2022/11/23 13:11:37;;;;;;;31.70;10.35;;;;;;;3.22;75.96;98824.88;6208333;22;20111;-91
2022/11/23 13:14:51;;;;;;;22.45;7.30;;;;;;;2.78;75.27;98773.47;6223769;22;20019;-90
2022/11/23 13:17:44;;;;;;;19.65;7.88;;;;;;;3.00;76.09;98825.22;6178426;23;20012;-92
2022/11/23 13:20:44;;;;;;;30.70;9.50;;;;;;;2.91;76.50;98834.97;6160597;23;20036;-92
2022/11/23 13:23:12;;;;;;;18.52;8.07;;;;;;;2.80;76.94;98817.19;6221957;22;20019;-90
2022/11/23 13:25:39;;;;;;;19.27;9.07;;;;;;;2.79;76.87;98824.50;6271678;22;20023;-92
2022/11/23 13:28:30;;;;;;;20.40;9.00;;;;;;;2.94;76.97;98837.13;6213450;22;20016;-89
2022/11/23 13:31:16;;;;;;;18.17;9.82;;;;;;;2.96;76.54;98842.25;6240168;22;20015;-92
2022/11/23 13:33:48;;;;;;;16.65;8.15;;;;;;;2.91;76.55;98837.66;6219538;22;20067;-92
2022/11/23 13:36:29;;;;;;;29.20;9.77;;;;;;;2.87;76.81;98843.91;6235758;22;20015;-92
2022/11/23 13:39:02;;;;;;;21.98;8.60;;;;;;;2.83;77.06;98849.84;6235261;22;20020;-91
2022/11/23 13:41:34;;;;;;;13.95;7.93;;;;;;;2.87;76.60;98846.59;6230835;22;20035;-90
2022/11/23 13:44:22;;;;;;;30.00;9.13;;;;;;;2.98;76.37;98849.00;6210135;22;20022;-90
2022/11/23 13:47:02;;;;;;;13.68;7.65;;;;;;;2.98;76.38;98848.19;6236249;22;20034;-92
2022/11/23 13:49:44;;;;;;;12.60;7.30;;;;;;;2.89;76.46;98858.75;6209084;22;20019;-91
2022/11/23 13:52:25;;;;;;;23.33;8.40;;;;;;;3.06;76.22;98867.34;6209430;22;20031;-93
2022/11/23 13:55:04;;;;;;;35.10;9.77;;;;;;;2.95;75.37;98825.25;6209837;22;20098;-92
2022/11/23 13:57:35;;;;;;;29.10;9.73;;;;;;;3.04;75.47;98863.28;6236128;22;20019;-94
2022/11/23 14:00:39;;;;;;;40.78;9.70;;;;;;;3.17;76.48;98865.41;6187447;22;20000;-91
2022/11/23 14:03:48;;;;;;;14.88;9.43;;;;;;;3.13;75.42;98869.75;6272473;22;20024;-92
2022/11/23 14:06:21;;;;;;;34.25;10.40;;;;;;;3.20;75.22;98872.16;6212139;22;20045;-91
2022/11/23 14:09:25;;;;;;;30.45;9.85;;;;;;;2.77;75.42;98842.03;6261690;22;20438;-94
2022/11/23 14:12:26;;;;;;;28.00;8.70;;;;;;;2.51;75.86;98825.06;6210155;22;20043;-93
2022/11/23 14:14:59;;;;;;;24.73;8.85;;;;;;;2.87;76.08;98896.00;6239274;22;20029;-90
2022/11/23 14:17:38;;;;;;;22.58;8.50;;;;;;;3.03;75.98;98889.47;6260639;22;20349;-93
2022/11/23 14:20:14;;;;;;;10.38;7.18;;;;;;;3.09;75.39;98892.19;6270646;22;20464;-90
2022/11/23 14:22:52;;;;;;;15.50;7.47;;;;;;;3.02;75.29;98892.47;6235723;22;20650;-91
2022/11/23 14:25:48;;;;;;;22.83;8.23;;;;;;;3.05;74.91;98892.72;6283132;22;20016;-92
2022/11/23 14:28:52;;;;;;;20.48;7.53;;;;;;;3.04;74.35;98899.19;6199734;23;20035;-95
2022/11/23 14:48:01;;;;;;;23.48;7.22;;;;;;;2.13;75.71;98826.47;6269052;22;20240;-94
2022/11/23 14:51:21;;;;;;;39.72;7.70;;;;;;;2.15;76.45;98832.38;6188238;23;20020;-96
2022/11/23 14:54:40;;;;;;;16.08;7.13;;;;;;;1.74;76.90;98781.16;6163051;23;20036;-95
2022/11/23 14:57:38;;;;;;;14.57;5.18;;;;;;;2.05;77.10;98846.66;6177737;23;20085;-93
2022/11/23 15:00:24;;;;;;;11.82;5.45;;;;;;;1.74;77.28;98813.47;6149572;23;20021;-89
2022/11/23 15:02:52;;;;;;;10.57;5.13;;;;;;;1.79;77.42;98818.91;6160149;23;20095;-88
2022/11/23 15:05:25;;;;;;;11.13;5.18;;;;;;;2.62;80.10;98898.75;6138962;23;20016;-90
2022/11/23 15:08:16;;;;;;;19.55;5.38;;;;;;;2.48;75.71;98882.25;6127907;23;20016;-89
2022/11/23 15:11:05;;;;;;;12.90;5.40;;;;;;;2.75;75.00;98914.38;6100837;23;20026;-89
2022/11/23 15:13:43;;;;;;;10.70;5.53;;;;;;;2.67;75.09;98920.31;6053897;23;20198;-89
2022/11/23 15:16:15;;;;;;;15.38;5.85;;;;;;;2.53;74.96;98884.97;6064147;23;20018;-88
2022/11/23 15:18:51;;;;;;;15.07;6.40;;;;;;;2.90;75.18;98925.16;6060990;23;20022;-90
2022/11/23 15:21:23;;;;;;;15.02;6.30;;;;;;;2.96;75.03;98939.44;6105918;23;20025;-89
2022/11/23 15:23:55;;;;;;;14.77;5.63;;;;;;;2.86;74.56;98951.06;6138599;23;20075;-90
2022/11/23 15:26:27;;;;;;;11.57;5.43;;;;;;;2.74;74.83;98939.72;6161953;23;20025;-89
2022/11/23 15:28:53;;;;;;;10.70;5.00;;;;;;;2.51;75.29;98941.88;6089181;23;20052;-91
2022/11/23 15:31:29;;;;;;;15.02;5.15;;;;;;;2.26;75.96;98909.53;6090448;23;20021;-90
2022/11/23 15:34:12;;;;;;;11.40;5.40;;;;;;;2.27;75.72;98916.53;6165347;23;20026;-88
2022/11/23 15:36:40;;;;;;;12.40;6.10;;;;;;;2.39;75.93;98960.25;6139675;23;20048;-88
2022/11/23 15:39:18;;;;;;;10.30;5.25;;;;;;;2.31;75.41;98963.44;6171153;23;20084;-89
2022/11/23 15:41:48;;;;;;;9.85;4.82;;;;;;;1.75;75.58;98896.72;6094522;23;20013;-88
2022/11/23 15:44:25;;;;;;;6.13;3.50;;;;;;;1.73;74.44;98895.41;6162100;23;20017;-88
2022/11/23 15:47:02;;;;;;;5.75;3.70;;;;;;;2.05;74.47;98967.97;6140325;23;20169;-89
2022/11/23 15:49:29;;;;;;;6.32;3.88;;;;;;;2.01;74.63;98978.47;6172681;23;20063;-89
2022/11/23 15:52:03;;;;;;;7.13;4.60;;;;;;;1.62;74.38;98908.84;6211176;23;20016;-89
2022/11/23 15:54:44;;;;;;;8.45;5.30;;;;;;;1.68;74.50;98917.72;6238608;23;20020;-91
2022/11/23 15:57:23;;;;;;;10.43;5.63;;;;;;;2.31;74.42;98985.03;6208786;23;20039;-90
2022/11/23 15:59:59;;;;;;;9.88;5.15;;;;;;;2.17;73.75;98952.38;6180445;23;20027;-91
2022/11/23 16:02:29;;;;;;;7.33;4.30;;;;;;;2.38;74.16;98987.47;6225914;23;20350;-89
2022/11/23 16:05:20;;;;;;;11.98;4.22;;;;;;;2.41;73.95;98997.72;6182525;23;20251;-90
2022/11/23 16:08:36;;;;;;;13.43;4.85;;;;;;;2.25;73.15;98959.94;6082262;23;20026;-90
2022/11/23 16:11:27;;;;;;;12.95;6.13;;;;;;;1.81;74.01;98892.16;6070010;23;20014;-91
2022/11/23 16:14:41;;;;;;;12.00;5.63;;;;;;;2.01;73.62;98943.44;6090109;23;20026;-91
2022/11/23 16:17:22;;;;;;;12.77;5.68;;;;;;;2.22;74.79;99000.94;6058825;23;20030;-89
2022/11/23 16:19:57;;;;;;;18.90;5.85;;;;;;;2.04;74.23;98977.94;6064309;23;20022;-90
2022/11/23 16:22:46;;;;;;;9.70;5.60;;;;;;;2.16;74.88;98985.00;6082763;23;20018;-91
2022/11/23 16:25:24;;;;;;;9.73;4.50;;;;;;;2.30;73.41;99005.00;6064147;23;20019;-89
2022/11/23 16:28:14;;;;;;;8.73;4.75;;;;;;;2.00;72.91;98965.28;6056392;23;20018;-90
2022/11/23 16:30:45;;;;;;;9.40;5.35;;;;;;;1.86;73.50;98927.22;6036199;23;20019;-90
2022/11/23 16:33:20;;;;;;;12.23;5.90;;;;;;;1.72;73.49;98896.44;6078711;23;20461;-92
2022/11/23 16:35:50;;;;;;;16.23;5.80;;;;;;;1.57;74.70;98910.69;6086944;23;20018;-91
2022/11/23 16:38:24;;;;;;;13.60;6.53;;;;;;;2.13;74.57;98986.34;5999986;23;20072;-91
2022/11/23 16:40:55;;;;;;;13.52;6.68;;;;;;;1.85;74.65;98944.47;6031403;23;20022;-90
2022/11/23 16:43:26;;;;;;;19.15;7.00;;;;;;;2.41;74.05;99022.81;6033509;23;20025;-90
2022/11/23 16:45:53;;;;;;;13.85;7.03;;;;;;;2.19;74.56;98982.59;6029635;23;20026;-91
2022/11/23 16:48:30;;;;;;;12.80;7.00;;;;;;;2.52;74.13;99029.06;6031282;23;20027;-90
2022/11/23 16:51:00;;;;;;;11.98;7.25;;;;;;;2.11;74.42;98970.41;6030417;23;20023;-91
2022/11/23 16:53:29;;;;;;;13.57;7.22;;;;;;;2.52;74.29;99034.44;6143891;23;20023;-90
2022/11/23 16:55:59;;;;;;;15.70;8.68;;;;;;;2.24;74.11;99023.03;6144893;23;20017;-91
2022/11/23 16:58:33;;;;;;;17.08;8.45;;;;;;;1.59;74.49;98946.25;6122449;23;20025;-91
2022/11/23 17:01:03;;;;;;;13.73;8.10;;;;;;;1.70;74.83;98993.72;6095606;23;20013;-89
2022/11/23 17:03:32;;;;;;;14.88;8.60;;;;;;;2.01;75.23;99045.88;6145057;23;20201;-91
2022/11/23 17:06:04;;;;;;;13.50;8.52;;;;;;;1.90;74.99;99044.22;6128556;23;20041;-91
2022/11/23 17:08:31;;;;;;;13.70;8.20;;;;;;;1.37;75.23;98981.44;6116268;23;20020;-91
2022/11/23 17:11:01;;;;;;;14.57;7.18;;;;;;;1.54;75.21;99013.59;6237428;23;20055;-92
2022/11/23 17:13:37;;;;;;;13.80;8.52;;;;;;;1.14;75.78;98943.06;6230021;23;20071;-91
2022/11/23 17:16:26;;;;;;;12.70;7.20;;;;;;;1.98;75.94;99056.38;6213965;23;20027;-91
2022/11/23 17:18:53;;;;;;;12.73;7.05;;;;;;;1.90;74.45;99052.31;6186475;23;20044;-90
2022/11/23 17:21:28;;;;;;;15.07;7.00;;;;;;;1.83;74.05;99067.91;6188536;23;20023;-89
2022/11/23 17:23:56;;;;;;;12.35;6.57;;;;;;;1.56;74.40;99027.63;6209396;23;20505;-88
2022/11/23 17:26:58;;;;;;;14.38;7.78;;;;;;;1.76;75.20;99064.63;6213481;23;20087;-90
2022/11/23 17:29:29;;;;;;;20.85;8.23;;;;;;;1.54;75.90;99046.72;6240425;23;20040;-89
2022/11/23 17:31:55;;;;;;;14.47;7.40;;;;;;;1.36;76.06;99039.06;6265324;23;20016;-89
2022/11/23 17:34:23;;;;;;;;;;;;;;;1.53;76.15;99085.50;6208861;23;20338;-89
2022/11/23 17:37:02;;;;;;;13.93;8.43;;;;;;;1.20;76.43;99032.75;6209038;23;19918;-90
2022/11/23 17:39:33;;;;;;;14.88;7.10;;;;;;;1.46;75.87;99090.31;6236243;23;20023;-88
2022/11/23 17:42:05;;;;;;;11.35;7.10;;;;;;;1.09;76.29;99044.50;6209883;23;20438;-90
2022/11/23 17:44:32;;;;;;;12.05;7.55;;;;;;;1.17;77.04;99047.53;6156202;23;20024;-89
2022/11/23 17:47:02;;;;;;;12.93;8.15;;;;;;;1.51;75.66;99095.72;6210838;23;20019;-90
2022/11/23 17:49:31;;;;;;;21.42;9.20;;;;;;;1.16;76.13;99056.69;6233941;23;20094;-87
2022/11/23 17:51:59;;;;;;;16.60;9.43;;;;;;;0.98;76.84;99029.34;6242903;23;20020;-87
2022/11/23 17:54:26;;;;;;;16.50;9.60;;;;;;;1.07;77.06;99052.84;6266062;23;20012;-88
2022/11/23 17:56:56;;;;;;;15.43;9.38;;;;;;;1.33;76.66;99088.88;6240230;23;20039;-89
2022/11/23 17:59:24;;;;;;;18.83;8.93;;;;;;;1.20;76.71;99078.53;6191872;23;20004;-87
2022/11/23 18:01:56;;;;;;;14.68;8.27;;;;;;;1.20;76.84;99094.69;6236122;23;20084;-88
2022/11/23 18:04:23;;;;;;;15.10;8.80;;;;;;;0.98;76.95;99092.06;6180516;23;20028;-88
2022/11/23 18:07:11;;;;;;;17.98;9.15;;;;;;;1.02;77.10;99116.59;6235372;23;20028;-89
2022/11/23 18:09:45;;;;;;;16.83;9.02;;;;;;;0.41;77.39;99044.97;6261871;23;19992;-90
2022/11/23 18:12:13;;;;;;;14.27;8.57;;;;;;;0.47;77.36;99056.63;6208649;23;20016;-90
2022/11/23 18:14:39;;;;;;;15.48;8.23;;;;;;;0.93;77.48;99130.53;6184699;23;20061;-90
2022/11/23 18:17:28;;;;;;;24.88;9.68;;;;;;;0.89;77.40;99107.88;6213224;23;20020;-90
2022/11/23 18:19:58;;;;;;;15.93;8.65;;;;;;;0.86;77.65;99111.09;6193955;23;20019;-92
2022/11/23 18:22:31;;;;;;;15.90;9.05;;;;;;;0.86;77.64;99113.78;6190217;23;20031;-91
2022/11/23 18:25:01;;;;;;;19.55;9.70;;;;;;;0.70;77.81;99099.34;6185097;23;20103;-90